createdAt,value
2018-01-16T00:01:47.430Z,6.00
2018-01-16T00:04:14.885Z,6.00
2018-01-16T00:06:42.357Z,6.00
2018-01-16T00:09:09.803Z,6.00
2018-01-16T00:11:37.271Z,6.00
2018-01-16T00:14:04.731Z,6.00
2018-01-16T00:16:32.187Z,5.90
2018-01-16T00:18:59.656Z,6.00
2018-01-16T00:21:27.128Z,6.00
2018-01-16T00:23:54.586Z,6.00
2018-01-16T00:26:22.044Z,6.00
2018-01-16T00:28:49.509Z,6.00
2018-01-16T00:31:16.979Z,6.00
2018-01-16T00:33:44.435Z,6.00
2018-01-16T00:36:11.898Z,6.00
2018-01-16T00:38:39.357Z,5.90
2018-01-16T00:41:06.786Z,5.80
2018-01-16T00:43:35.006Z,5.70
2018-01-16T00:46:02.452Z,5.70
2018-01-16T00:48:29.886Z,5.70
2018-01-16T00:50:58.092Z,5.70
2018-01-16T00:53:25.545Z,5.70
2018-01-16T00:55:53.759Z,5.80
2018-01-16T00:58:21.218Z,5.70
2018-01-16T01:00:48.672Z,5.80
2018-01-16T01:03:16.158Z,5.80
2018-01-16T01:05:43.601Z,5.80
2018-01-16T01:08:11.078Z,5.80
2018-01-16T01:10:38.535Z,5.80
2018-01-16T01:13:05.991Z,5.80
2018-01-16T01:15:33.467Z,5.80
2018-01-16T01:18:00.919Z,5.80
2018-01-16T01:20:28.357Z,5.80
2018-01-16T01:22:56.575Z,5.80
2018-01-16T01:25:24.036Z,5.80
2018-01-16T01:27:51.490Z,5.80
2018-01-16T01:30:18.941Z,5.90
2018-01-16T01:32:46.409Z,5.90
2018-01-16T01:35:13.865Z,6.00
2018-01-16T01:37:41.325Z,6.00
2018-01-16T01:40:08.767Z,6.00
2018-01-16T01:42:36.998Z,5.90
2018-01-16T01:45:04.445Z,5.90
2018-01-16T01:47:31.895Z,5.90
2018-01-16T01:49:59.343Z,6.00
2018-01-16T01:52:26.826Z,6.00
2018-01-16T01:54:54.293Z,6.00
2018-01-16T01:57:21.746Z,6.00
2018-01-16T01:59:49.200Z,6.00
2018-01-16T02:02:16.658Z,6.10
2018-01-16T02:04:44.127Z,6.00
2018-01-16T02:07:11.588Z,6.00
2018-01-16T02:09:39.041Z,6.00
2018-01-16T02:12:07.266Z,6.10
2018-01-16T02:14:34.734Z,6.00
2018-01-16T02:17:02.188Z,6.10
2018-01-16T02:19:29.646Z,6.10
2018-01-16T02:21:57.104Z,6.10
2018-01-16T02:24:24.559Z,6.10
2018-01-16T02:26:52.021Z,6.00
2018-01-16T02:29:19.471Z,6.00
2018-01-16T02:31:46.924Z,6.00
2018-01-16T02:34:15.150Z,6.00
2018-01-16T02:36:42.605Z,6.00
2018-01-16T02:39:10.065Z,6.00
2018-01-16T02:41:37.528Z,6.00
2018-01-16T02:44:04.990Z,6.00
2018-01-16T02:46:32.452Z,6.00
2018-01-16T02:48:59.897Z,6.00
2018-01-16T02:51:27.365Z,6.00
2018-01-16T02:53:54.813Z,6.10
2018-01-16T02:56:22.284Z,6.00
2018-01-16T02:58:49.732Z,6.00
2018-01-16T03:01:17.946Z,6.00
2018-01-16T03:03:45.398Z,6.00
2018-01-16T03:06:12.858Z,6.10
2018-01-16T03:08:40.333Z,6.10
2018-01-16T03:11:07.791Z,6.10
2018-01-16T03:13:35.243Z,6.10
2018-01-16T03:16:02.695Z,6.10
2018-01-16T03:18:30.150Z,6.10
2018-01-16T03:20:58.366Z,6.10
2018-01-16T03:23:25.818Z,6.10
2018-01-16T03:25:53.270Z,6.00
2018-01-16T03:28:20.709Z,6.00
2018-01-16T03:30:48.940Z,6.00
2018-01-16T03:33:16.410Z,5.90
2018-01-16T03:35:43.844Z,6.00
2018-01-16T03:38:11.301Z,5.90
2018-01-16T03:40:38.764Z,6.00
2018-01-16T03:43:06.227Z,5.90
2018-01-16T03:45:33.670Z,6.00
2018-01-16T03:48:01.889Z,5.90
2018-01-16T03:50:29.342Z,5.90
2018-01-16T03:52:56.799Z,5.90
2018-01-16T03:55:24.225Z,5.80
2018-01-16T03:57:52.445Z,5.80
2018-01-16T04:00:19.883Z,5.80
2018-01-16T04:02:47.333Z,5.90
2018-01-16T04:05:15.558Z,5.90
2018-01-16T04:07:43.009Z,5.80
2018-01-16T04:10:10.453Z,5.80
2018-01-16T04:12:38.669Z,5.80
2018-01-16T04:15:06.092Z,5.80
2018-01-16T04:17:33.553Z,5.90
2018-01-16T04:20:01.782Z,5.80
2018-01-16T04:22:29.240Z,5.80
2018-01-16T04:24:56.695Z,5.80
2018-01-16T04:27:24.138Z,5.80
2018-01-16T04:29:51.570Z,5.80
2018-01-16T04:32:19.797Z,5.80
2018-01-16T04:34:47.274Z,5.80
2018-01-16T04:37:14.700Z,5.80
2018-01-16T04:39:42.143Z,5.80
2018-01-16T04:42:10.342Z,5.80
2018-01-16T04:44:37.990Z,5.80
2018-01-16T04:47:06.225Z,5.80
2018-01-16T04:49:33.703Z,5.80
2018-01-16T04:52:01.155Z,5.80
2018-01-16T04:54:28.617Z,5.80
2018-01-16T04:56:56.111Z,5.70
2018-01-16T04:59:23.550Z,5.70
2018-01-16T05:01:51.003Z,5.70
2018-01-16T05:04:18.459Z,5.70
2018-01-16T05:06:45.901Z,5.70
2018-01-16T05:09:13.360Z,5.70
2018-01-16T05:11:40.809Z,5.80
2018-01-16T05:14:08.275Z,5.70
2018-01-16T05:16:35.734Z,5.70
2018-01-16T05:19:03.934Z,5.70
2018-01-16T05:21:31.390Z,5.70
2018-01-16T05:23:59.037Z,5.70
2018-01-16T05:26:27.255Z,5.80
2018-01-16T05:28:54.699Z,5.80
2018-01-16T05:31:22.162Z,5.80
2018-01-16T05:33:49.611Z,5.80
2018-01-16T05:36:17.823Z,5.90
2018-01-16T05:38:45.280Z,5.90
2018-01-16T05:41:12.739Z,5.90
2018-01-16T05:43:40.176Z,5.90
2018-01-16T05:46:07.622Z,5.90
2018-01-16T05:48:35.857Z,5.90
2018-01-16T05:51:03.297Z,5.90
2018-01-16T05:53:30.769Z,5.90
2018-01-16T05:55:58.205Z,5.90
2018-01-16T05:58:26.430Z,5.80
2018-01-16T06:00:53.892Z,5.90
2018-01-16T06:03:21.347Z,5.90
2018-01-16T06:05:48.803Z,5.90
2018-01-16T06:08:16.249Z,6.00
2018-01-16T06:10:43.703Z,5.70
2018-01-16T06:13:11.148Z,5.30
2018-01-16T06:15:39.367Z,5.40
2018-01-16T06:18:07.134Z,5.40
2018-01-16T06:20:34.558Z,5.40
2018-01-16T06:23:02.777Z,5.50
2018-01-16T06:25:30.235Z,5.50
2018-01-16T06:27:57.694Z,5.50
2018-01-16T06:30:25.153Z,5.60
2018-01-16T06:32:52.644Z,5.60
2018-01-16T06:35:20.095Z,5.60
2018-01-16T06:37:47.521Z,5.60
2018-01-16T06:40:15.741Z,5.60
2018-01-16T06:42:43.192Z,5.60
2018-01-16T06:45:10.655Z,5.60
2018-01-16T06:47:38.187Z,5.60
2018-01-16T06:50:05.575Z,5.60
2018-01-16T06:52:33.039Z,5.50
2018-01-16T06:55:00.523Z,5.50
2018-01-16T06:57:27.965Z,5.40
2018-01-16T06:59:55.424Z,5.40
2018-01-16T07:02:22.850Z,5.40
2018-01-16T07:04:51.082Z,5.50
2018-01-16T07:07:18.504Z,5.50
2018-01-16T07:09:46.741Z,5.60
2018-01-16T07:12:14.181Z,5.50
2018-01-16T07:14:41.940Z,5.50
2018-01-16T07:17:09.392Z,5.60
2018-01-16T07:19:37.599Z,5.40
2018-01-16T07:22:05.049Z,5.40
2018-01-16T07:24:32.525Z,5.30
2018-01-16T07:26:59.969Z,5.10
2018-01-16T07:29:27.404Z,5.10
2018-01-16T07:31:55.629Z,5.00
2018-01-16T07:34:23.084Z,5.00
2018-01-16T07:36:50.513Z,5.00
2018-01-16T07:39:18.738Z,5.00
2018-01-16T07:41:46.181Z,5.00
2018-01-16T07:44:13.643Z,4.90
2018-01-16T07:46:41.100Z,4.90
2018-01-16T07:49:08.557Z,4.80
2018-01-16T07:51:35.992Z,4.80
2018-01-16T07:54:03.686Z,4.80
2018-01-16T07:56:31.145Z,4.80
2018-01-16T07:58:59.361Z,4.70
2018-01-16T08:01:26.803Z,4.70
2018-01-16T08:03:54.249Z,4.70
2018-01-16T08:06:21.692Z,4.70
2018-01-16T08:08:49.912Z,4.70
2018-01-16T08:11:17.372Z,4.70
2018-01-16T08:13:44.842Z,4.70
2018-01-16T08:16:12.298Z,4.70
2018-01-16T08:18:39.747Z,4.70
2018-01-16T08:21:07.202Z,4.70
2018-01-16T08:23:35.425Z,4.80
2018-01-16T08:26:02.908Z,4.80
2018-01-16T08:28:30.385Z,4.80
2018-01-16T08:30:57.809Z,4.90
2018-01-16T08:33:25.254Z,4.90
2018-01-16T08:35:52.720Z,5.00
2018-01-16T08:38:20.175Z,5.10
2018-01-16T08:40:47.614Z,5.00
2018-01-16T08:43:15.827Z,5.00
2018-01-16T08:45:43.279Z,5.00
2018-01-16T08:48:10.709Z,5.00
2018-01-16T08:50:38.939Z,5.00
2018-01-16T08:53:06.391Z,5.00
2018-01-16T08:55:33.841Z,5.10
2018-01-16T08:58:01.301Z,5.00
2018-01-16T09:00:29.515Z,5.10
2018-01-16T09:02:56.982Z,5.10
2018-01-16T09:05:24.473Z,5.10
2018-01-16T09:07:51.934Z,5.10
2018-01-16T09:10:19.411Z,5.10
2018-01-16T09:12:47.642Z,5.10
2018-01-16T09:15:15.084Z,5.00
2018-01-16T09:17:42.554Z,5.10
2018-01-16T09:20:09.986Z,5.20
2018-01-16T09:22:38.205Z,5.20
2018-01-16T09:25:05.656Z,5.20
2018-01-16T09:27:33.103Z,5.30
2018-01-16T09:30:00.552Z,5.30
2018-01-16T09:32:28.762Z,5.30
2018-01-16T09:34:56.223Z,5.30
2018-01-16T09:37:23.682Z,5.30
2018-01-16T09:39:51.146Z,5.30
2018-01-16T09:42:18.561Z,5.30
2018-01-16T09:44:46.806Z,5.20
2018-01-16T09:47:14.267Z,5.20
2018-01-16T09:49:41.754Z,5.20
2018-01-16T09:52:09.228Z,5.20
2018-01-16T09:54:36.665Z,5.20
2018-01-16T09:57:04.110Z,5.20
2018-01-16T09:59:31.566Z,5.20
2018-01-16T10:01:59.025Z,5.20
2018-01-16T10:04:26.467Z,5.20
2018-01-16T10:06:54.696Z,5.30
2018-01-16T10:09:22.151Z,5.30
2018-01-16T10:11:49.611Z,5.30
2018-01-16T10:14:17.070Z,5.30
2018-01-16T10:16:44.514Z,5.20
2018-01-16T10:19:12.747Z,5.30
2018-01-16T10:21:40.200Z,5.30
2018-01-16T10:24:07.671Z,5.30
2018-01-16T10:26:35.120Z,5.30
2018-01-16T10:29:02.596Z,5.40
2018-01-16T10:31:30.038Z,5.50
2018-01-16T10:33:57.486Z,5.50
2018-01-16T10:36:24.935Z,5.50
2018-01-16T10:38:52.390Z,5.50
2018-01-16T10:41:19.871Z,5.50
2018-01-16T10:43:47.330Z,5.50
2018-01-16T10:46:14.791Z,5.50
2018-01-16T10:48:42.241Z,5.50
2018-01-16T10:51:09.678Z,5.50
2018-01-16T10:53:37.919Z,5.40
2018-01-16T10:56:05.357Z,5.40
2018-01-16T10:58:32.817Z,5.50
2018-01-16T11:01:00.250Z,5.50
2018-01-16T11:03:28.466Z,5.60
2018-01-16T11:05:55.902Z,5.50
2018-01-16T11:08:24.126Z,5.60
2018-01-16T11:10:52.341Z,5.60
2018-01-16T11:13:19.795Z,5.60
2018-01-16T11:15:47.247Z,5.60
2018-01-16T11:18:14.691Z,5.50
2018-01-16T11:20:42.169Z,5.40
2018-01-16T11:23:09.623Z,5.50
2018-01-16T11:25:37.079Z,5.50
2018-01-16T11:28:04.544Z,5.50
2018-01-16T11:30:31.991Z,5.60
2018-01-16T11:32:59.437Z,5.60
2018-01-16T11:35:26.896Z,5.60
2018-01-16T11:37:54.338Z,5.60
2018-01-16T11:40:21.800Z,5.60
2018-01-16T11:42:52.705Z,5.60
2018-01-16T11:45:20.151Z,5.50
2018-01-16T11:47:47.594Z,5.50
2018-01-16T11:50:15.053Z,5.50
2018-01-16T11:52:42.488Z,5.60
2018-01-16T11:55:09.954Z,5.50
2018-01-16T11:57:37.412Z,5.50
2018-01-16T12:00:04.895Z,5.60
2018-01-16T12:02:32.357Z,5.70
2018-01-16T12:05:00.584Z,5.80
2018-01-16T12:07:28.803Z,5.70
2018-01-16T12:09:57.024Z,5.70
2018-01-16T12:12:24.495Z,5.70
2018-01-16T12:14:51.950Z,5.70
2018-01-16T12:17:19.424Z,5.70
2018-01-16T12:19:46.886Z,5.60
2018-01-16T12:22:14.327Z,5.60
2018-01-16T12:24:41.779Z,5.60
2018-01-16T12:27:09.218Z,5.60
2018-01-16T12:29:37.448Z,5.60
2018-01-16T12:32:04.931Z,5.60
2018-01-16T12:34:32.374Z,5.50
2018-01-16T12:36:59.814Z,5.50
2018-01-16T12:39:27.290Z,5.60
2018-01-16T12:41:54.755Z,5.60
2018-01-16T12:44:22.214Z,5.60
2018-01-16T12:46:49.676Z,5.60
2018-01-16T12:49:17.138Z,5.70
2018-01-16T12:51:44.613Z,5.70
2018-01-16T12:54:12.159Z,5.70
2018-01-16T12:56:39.607Z,5.60
2018-01-16T12:59:07.842Z,5.70
2018-01-16T13:01:35.283Z,5.70
2018-01-16T13:04:02.734Z,5.60
2018-01-16T13:06:30.192Z,5.60
2018-01-16T13:08:57.646Z,5.70
2018-01-16T13:11:25.104Z,5.60
2018-01-16T13:13:53.328Z,5.60
2018-01-16T13:16:20.789Z,5.60
2018-01-16T13:18:48.242Z,5.60
2018-01-16T13:21:15.685Z,5.50
2018-01-16T13:23:43.127Z,5.60
2018-01-16T13:26:11.383Z,5.60
2018-01-16T13:28:38.844Z,5.60
2018-01-16T13:31:06.306Z,5.50
2018-01-16T13:33:33.764Z,5.50
2018-01-16T13:36:01.248Z,5.50
2018-01-16T13:38:29.463Z,5.50
2018-01-16T13:40:56.909Z,5.40
2018-01-16T13:43:24.366Z,5.50
2018-01-16T13:45:52.587Z,5.50
2018-01-16T13:48:20.046Z,5.50
2018-01-16T13:50:47.493Z,5.70
2018-01-16T13:53:14.963Z,5.70
2018-01-16T13:55:42.425Z,5.80
2018-01-16T13:58:09.862Z,5.70
2018-01-16T14:00:37.327Z,5.80
2018-01-16T14:03:05.538Z,5.60
2018-01-16T14:05:33.011Z,5.60
2018-01-16T14:08:00.475Z,5.60
2018-01-16T14:10:27.986Z,5.60
2018-01-16T14:12:55.407Z,5.70
2018-01-16T14:15:22.873Z,5.70
2018-01-16T14:17:51.090Z,5.80
2018-01-16T14:20:19.305Z,5.70
2018-01-16T14:22:46.741Z,5.70
2018-01-16T14:25:14.215Z,5.70
2018-01-16T14:27:41.637Z,5.70
2018-01-16T14:30:09.081Z,5.70
2018-01-16T14:32:36.530Z,5.70
2018-01-16T14:35:03.997Z,5.60
2018-01-16T14:37:31.442Z,5.70
2018-01-16T14:39:58.899Z,5.60
2018-01-16T14:42:26.355Z,5.60
2018-01-16T14:44:53.803Z,5.60
2018-01-16T14:47:22.024Z,5.70
2018-01-16T14:49:49.483Z,5.60
2018-01-16T14:52:16.938Z,5.60
2018-01-16T14:54:44.400Z,5.70
2018-01-16T14:57:11.871Z,5.70
2018-01-16T14:59:39.331Z,5.70
2018-01-16T15:02:06.781Z,5.70
2018-01-16T15:04:34.222Z,5.70
2018-01-16T15:07:02.440Z,5.60
2018-01-16T15:09:29.894Z,5.50
2018-01-16T15:11:57.378Z,5.60
2018-01-16T15:14:24.785Z,5.50
2018-01-16T15:16:53.000Z,5.40
2018-01-16T15:19:20.469Z,5.40
2018-01-16T15:21:47.923Z,5.40
2018-01-16T15:24:15.385Z,5.40
2018-01-16T15:26:42.834Z,5.40
2018-01-16T15:29:10.304Z,5.40
2018-01-16T15:31:37.739Z,5.40
2018-01-16T15:34:05.962Z,5.40
2018-01-16T15:36:33.406Z,5.40
2018-01-16T15:39:00.874Z,5.40
2018-01-16T15:41:28.318Z,5.40
2018-01-16T15:43:55.812Z,5.40
2018-01-16T15:46:24.001Z,5.40
2018-01-16T15:48:51.439Z,5.40
2018-01-16T15:51:18.907Z,5.40
2018-01-16T15:53:46.365Z,5.40
2018-01-16T15:56:13.815Z,5.40
2018-01-16T15:58:41.286Z,5.40
2018-01-16T16:01:08.753Z,5.40
2018-01-16T16:03:36.219Z,5.40
2018-01-16T16:06:03.654Z,5.40
2018-01-16T16:08:31.880Z,5.30
2018-01-16T16:10:59.351Z,5.30
2018-01-16T16:13:26.831Z,5.30
2018-01-16T16:15:54.299Z,5.30
2018-01-16T16:18:21.748Z,5.30
2018-01-16T16:20:49.211Z,5.30
2018-01-16T16:23:16.658Z,5.30
2018-01-16T16:25:44.879Z,5.20
2018-01-16T16:28:13.090Z,5.30
2018-01-16T16:30:40.540Z,5.30
2018-01-16T16:33:08.022Z,5.40
2018-01-16T16:35:35.487Z,5.40
2018-01-16T16:38:02.945Z,5.40
2018-01-16T16:40:30.376Z,5.30
2018-01-16T16:42:58.566Z,5.40
2018-01-16T16:45:26.013Z,5.40
2018-01-16T16:47:54.233Z,5.30
2018-01-16T16:50:21.729Z,5.30
2018-01-16T16:52:49.197Z,5.30
2018-01-16T16:55:16.637Z,5.30
2018-01-16T16:57:44.099Z,5.40
2018-01-16T17:00:11.570Z,5.30
2018-01-16T17:02:39.047Z,5.30
2018-01-16T17:05:06.503Z,5.30
2018-01-16T17:07:33.965Z,5.30
2018-01-16T17:10:01.415Z,5.30
2018-01-16T17:12:28.871Z,5.30
2018-01-16T17:14:56.322Z,5.30
2018-01-16T17:17:24.121Z,5.20
2018-01-16T17:19:51.616Z,5.20
2018-01-16T17:22:19.837Z,5.30
2018-01-16T17:24:47.289Z,5.30
2018-01-16T17:27:14.735Z,5.30
2018-01-16T17:29:42.941Z,5.30
2018-01-16T17:32:10.394Z,5.30
2018-01-16T17:34:37.856Z,5.30
2018-01-16T17:37:05.287Z,5.30
2018-01-16T17:39:33.502Z,5.30
2018-01-16T17:42:01.003Z,5.30
2018-01-16T17:44:28.458Z,5.20
2018-01-16T17:46:55.908Z,5.30
2018-01-16T17:49:23.366Z,5.20
2018-01-16T17:51:50.913Z,5.20
2018-01-16T17:54:18.356Z,5.20
2018-01-16T17:56:46.574Z,5.20
2018-01-16T17:59:14.210Z,5.20
2018-01-16T18:01:41.706Z,5.10
2018-01-16T18:04:09.157Z,5.10
2018-01-16T18:06:36.613Z,5.10
2018-01-16T18:09:04.075Z,5.00
2018-01-16T18:11:31.542Z,5.00
2018-01-16T18:13:58.985Z,4.90
2018-01-16T18:16:26.431Z,4.90
2018-01-16T18:18:54.646Z,4.90
2018-01-16T18:21:22.132Z,4.80
2018-01-16T18:23:49.570Z,4.90
2018-01-16T18:26:17.043Z,4.90
2018-01-16T18:28:44.500Z,5.00
2018-01-16T18:31:11.941Z,5.00
2018-01-16T18:33:39.385Z,5.00
2018-01-16T18:36:07.619Z,5.10
2018-01-16T18:38:35.084Z,5.10
2018-01-16T18:41:02.540Z,5.10
2018-01-16T18:43:30.013Z,5.10
2018-01-16T18:45:57.535Z,5.10
2018-01-16T18:48:25.811Z,5.00
2018-01-16T18:50:53.342Z,5.00
2018-01-16T18:53:20.814Z,5.00
2018-01-16T18:55:48.296Z,5.00
2018-01-16T18:58:16.514Z,5.00
2018-01-16T19:00:44.042Z,5.00
2018-01-16T19:03:11.531Z,5.00
2018-01-16T19:05:38.972Z,5.10
2018-01-16T19:08:06.464Z,5.10
2018-01-16T19:10:34.756Z,5.10
2018-01-16T19:13:03.048Z,5.10
2018-01-16T19:15:30.569Z,5.10
2018-01-16T19:17:58.034Z,5.10
2018-01-16T19:20:25.481Z,5.10
2018-01-16T19:22:54.436Z,5.10
2018-01-16T19:25:21.958Z,5.10
2018-01-16T19:27:50.173Z,5.10
2018-01-16T19:30:17.728Z,5.20
2018-01-16T19:32:45.190Z,5.10
2018-01-16T19:35:12.636Z,5.10
2018-01-16T19:37:40.100Z,5.10
2018-01-16T19:40:07.578Z,5.10
2018-01-16T19:42:35.033Z,5.10
2018-01-16T19:45:02.525Z,5.10
2018-01-16T19:47:30.363Z,5.10
2018-01-16T19:49:58.237Z,5.10
2018-01-16T19:52:25.694Z,5.10
2018-01-16T19:54:53.142Z,5.10
2018-01-16T19:57:20.709Z,5.20
2018-01-16T19:59:48.906Z,5.10
2018-01-16T20:05:12.850Z,5.10
2018-01-16T20:07:40.320Z,5.00
2018-01-16T20:10:08.564Z,5.00
2018-01-16T20:12:36.017Z,5.00
2018-01-16T20:15:03.491Z,5.10
2018-01-16T20:17:30.934Z,5.10
2018-01-16T20:19:58.442Z,5.10
2018-01-16T20:22:25.855Z,5.10
2018-01-16T20:24:53.306Z,5.10
2018-01-16T20:27:20.787Z,5.00
2018-01-16T20:29:48.234Z,5.00
2018-01-16T20:32:15.677Z,5.10
2018-01-16T20:34:43.114Z,5.10
2018-01-16T20:37:10.554Z,5.10
2018-01-16T20:39:37.999Z,5.10
2018-01-16T20:42:05.441Z,5.10
2018-01-16T20:44:32.875Z,4.90
2018-01-16T20:47:01.095Z,4.60
2018-01-16T20:49:28.521Z,4.60
2018-01-16T20:51:56.730Z,4.70
2018-01-16T20:54:24.190Z,4.70
2018-01-16T20:56:51.626Z,4.80
2018-01-16T20:59:19.850Z,4.80
2018-01-16T21:01:47.302Z,4.80
2018-01-16T21:04:14.757Z,4.80
2018-01-16T21:06:42.196Z,4.70
2018-01-16T21:09:10.410Z,4.60
2018-01-16T21:11:37.850Z,4.50
2018-01-16T21:14:05.305Z,4.70
2018-01-16T21:16:32.747Z,4.70
2018-01-16T21:19:00.204Z,4.70
2018-01-16T21:21:27.631Z,4.80
2018-01-16T21:23:55.080Z,4.80
2018-01-16T21:26:22.533Z,4.70
2018-01-16T21:28:49.970Z,4.70
2018-01-16T21:31:18.187Z,4.70
2018-01-16T21:33:45.637Z,4.70
2018-01-16T21:36:13.086Z,4.70
2018-01-16T21:38:40.520Z,4.70
2018-01-16T21:41:07.976Z,4.70
2018-01-16T21:43:35.421Z,4.80
2018-01-16T21:46:03.640Z,4.50
2018-01-16T21:48:31.848Z,4.40
2018-01-16T21:50:59.285Z,4.40
2018-01-16T21:53:27.500Z,4.30
2018-01-16T21:55:55.711Z,4.30
2018-01-16T21:58:23.159Z,4.30
2018-01-16T22:00:50.594Z,4.30
2018-01-16T22:03:18.019Z,4.30
2018-01-16T22:05:46.247Z,4.40
2018-01-16T22:08:13.700Z,4.40
2018-01-16T22:10:41.134Z,4.50
2018-01-16T22:13:09.350Z,4.60
2018-01-16T22:15:36.812Z,4.60
2018-01-16T22:18:04.245Z,4.60
2018-01-16T22:20:31.697Z,4.60
2018-01-16T22:22:59.910Z,4.70
2018-01-16T22:25:27.338Z,4.60
2018-01-16T22:27:55.570Z,4.90
2018-01-16T22:30:23.002Z,4.90
2018-01-16T22:32:50.448Z,4.90
2018-01-16T22:35:18.643Z,4.70
2018-01-16T22:37:46.092Z,4.60
2018-01-16T22:40:15.165Z,4.30
2018-01-16T22:42:42.633Z,4.30
2018-01-16T22:45:10.078Z,4.20
2018-01-16T22:47:37.859Z,3.90
2018-01-16T22:50:05.285Z,3.80
2018-01-16T22:52:32.717Z,3.80
2018-01-16T22:55:00.926Z,3.70
2018-01-16T22:57:28.349Z,3.70
2018-01-16T22:59:56.574Z,3.80
2018-01-16T23:02:24.016Z,3.80
2018-01-16T23:04:51.454Z,3.80
2018-01-16T23:07:19.665Z,3.90
2018-01-16T23:09:47.101Z,3.90
2018-01-16T23:12:15.305Z,4.00
2018-01-16T23:14:42.753Z,4.00
2018-01-16T23:17:10.187Z,4.00
2018-01-16T23:19:37.650Z,4.10
2018-01-16T23:22:05.084Z,4.20
2018-01-16T23:24:33.298Z,4.30
2018-01-16T23:27:01.501Z,4.30
2018-01-16T23:29:28.948Z,4.30
2018-01-16T23:31:57.179Z,4.30
2018-01-16T23:34:24.610Z,4.30
2018-01-16T23:36:52.043Z,4.30
2018-01-16T23:39:20.256Z,4.40
2018-01-16T23:41:47.724Z,4.40
2018-01-16T23:44:15.181Z,4.30
2018-01-16T23:46:42.636Z,4.40
2018-01-16T23:49:10.073Z,4.30
2018-01-16T23:51:38.273Z,4.30
2018-01-16T23:54:05.711Z,4.30
2018-01-16T23:56:33.160Z,4.30
2018-01-16T23:59:00.592Z,4.30
